Aérodrome :
LOGIN :

S'inscrire | Disclaimer

   EN    FR    IT 

 










Légende :    VFR   VFR Marginal   IFR   IFR Intensif   IFR Très Intensif
Visi : 
Plafond : 
>= 8 km
>= 3000ft
5 à 8 km
1000 à 3000 ft
1500m à 5 km
500 à 1000 ft
800 à 1500m
200 à 500 ft
< 800m
< 200 ft
Symboles :   Orages  Brouillard  Fortes neiges  Fortes précipitations  Vent > 20 kt
SIGMETs :   Divers  Orages  Givrage  Turbulence  Onde Orograph.  Cendres Volcan.






- Altitude de l'aérodrome : 1300 ft
- Code IATA : LIG


LFBL - Limoges

DERNIER METAR :
  • 110330Z AUTO 20007KT 9999 -RA OVC006/// ///CB 08/07 Q1009 BECMG 3500 -RADZ OVC003

METARs EXPIRÉS :
  • 110300Z AUTO 20010KT 6000 RA OVC010/// ///TCU 08/07 Q1009 BECMG 3500 -RADZ OVC003
  • 110230Z AUTO 22009KT 9999 4900 -RA OVC012/// ///CB 09/07 Q1009 BECMG 16010KT 3500 -RADZ OVC003
  • 110200Z AUTO 20011KT 9999 OVC016/// ///TCU 09/07 Q1009 BECMG 3500 -RADZ OVC003
  • 110130Z AUTO 19010KT 9999 BKN015/// OVC020/// ///TCU 09/07 Q1009 BECMG 3500 -RADZ OVC003
  • 110100Z AUTO 17008KT 140V200 9999 OVC020/// ///CB 09/07 Q1009 BECMG BKN013

TAF TAF LFBL
Valide du 11 à 00h jusqu'au 12 à 00h UTC


102300Z 1100/1124 16010KT 9999 -RA OVC006
BECMG 1100/1102 BKN013
BECMG 1103/1107 3500 -RADZ OVC003
BECMG 1109/1111 29010KT
BECMG 1113/1115 9999 NSW SCT025
TEMPO 1118/1121 BKN013
ATIS : +33 5 55 48 40 37



MET'MAP, la Météo Aéronautique d'un coup d'oeil ! - Copyright ORBIFLY Décembre 2007 - Disclaimer

ORBIFLY MET'MAP TEAM :

Programmation & Développement : Alexandra Zaïnal
Sur une idée originale de : Baudouin d'Aumeries
Assistance à la programmation : Marc-Olivier Méhu
Soutien technique & logistique : Manuel Goepfert

Contact : metmap@orbifly.com




SOURCES & CREDITS :

   NOAA